sensor_id;sensor_type;location;lat;lon;timestamp;pressure;altitude;pressure_sealevel;temperature;humidity
498;BME280;39559;48.630;9.162;2024-02-28T00:01:17;97440.75;;;5.04;100.00
498;BME280;39559;48.630;9.162;2024-02-28T00:03:43;97445.06;;;5.03;100.00
498;BME280;39559;48.630;9.162;2024-02-28T00:06:09;97444.34;;;4.96;100.00
498;BME280;39559;48.630;9.162;2024-02-28T00:08:35;97442.53;;;5.00;100.00
498;BME280;39559;48.630;9.162;2024-02-28T00:13:05;97446.00;;;5.00;100.00
498;BME280;39559;48.630;9.162;2024-02-28T00:15:31;97439.97;;;5.00;100.00
498;BME280;39559;48.630;9.162;2024-02-28T00:17:57;97450.38;;;4.95;100.00
498;BME280;39559;48.630;9.162;2024-02-28T00:20:23;97442.78;;;4.89;100.00
498;BME280;39559;48.630;9.162;2024-02-28T00:22:52;97450.44;;;4.92;100.00
498;BME280;39559;48.630;9.162;2024-02-28T00:25:18;97448.81;;;4.88;100.00
498;BME280;39559;48.630;9.162;2024-02-28T00:27:43;97451.28;;;4.93;100.00
498;BME280;39559;48.630;9.162;2024-02-28T00:30:09;97453.34;;;4.77;100.00
498;BME280;39559;48.630;9.162;2024-02-28T00:32:35;97461.69;;;4.88;100.00
498;BME280;39559;48.630;9.162;2024-02-28T00:37:05;97457.16;;;4.99;100.00
498;BME280;39559;48.630;9.162;2024-02-28T00:39:30;97449.53;;;4.95;100.00
498;BME280;39559;48.630;9.162;2024-02-28T00:41:56;97451.34;;;4.90;100.00
498;BME280;39559;48.630;9.162;2024-02-28T00:44:21;97449.56;;;4.93;100.00
498;BME280;39559;48.630;9.162;2024-02-28T00:46:47;97448.63;;;4.97;100.00
498;BME280;39559;48.630;9.162;2024-02-28T00:49:12;97453.75;;;4.97;100.00
498;BME280;39559;48.630;9.162;2024-02-28T00:51:38;97442.59;;;4.98;100.00
498;BME280;39559;48.630;9.162;2024-02-28T00:54:03;97441.16;;;4.84;100.00
498;BME280;39559;48.630;9.162;2024-02-28T00:56:29;97446.78;;;4.60;100.00
498;BME280;39559;48.630;9.162;2024-02-28T01:01:04;97460.81;;;4.44;100.00
498;BME280;39559;48.630;9.162;2024-02-28T01:03:30;97464.03;;;4.55;100.00
498;BME280;39559;48.630;9.162;2024-02-28T01:05:56;97468.84;;;4.72;100.00
498;BME280;39559;48.630;9.162;2024-02-28T01:08:22;97461.81;;;4.82;100.00
498;BME280;39559;48.630;9.162;2024-02-28T01:10:47;97467.28;;;4.64;100.00
498;BME280;39559;48.630;9.162;2024-02-28T01:13:13;97470.53;;;4.75;100.00
498;BME280;39559;48.630;9.162;2024-02-28T01:15:40;97477.47;;;4.71;100.00
498;BME280;39559;48.630;9.162;2024-02-28T01:18:07;97466.09;;;4.81;100.00
498;BME280;39559;48.630;9.162;2024-02-28T01:20:32;97457.59;;;4.78;100.00
498;BME280;39559;48.630;9.162;2024-02-28T01:25:05;97447.88;;;4.91;100.00
498;BME280;39559;48.630;9.162;2024-02-28T01:27:34;97449.53;;;4.95;100.00
498;BME280;39559;48.630;9.162;2024-02-28T01:30:00;97453.72;;;5.00;100.00
498;BME280;39559;48.630;9.162;2024-02-28T01:32:27;97454.44;;;5.06;100.00
498;BME280;39559;48.630;9.162;2024-02-28T01:34:53;97453.72;;;5.00;100.00
498;BME280;39559;48.630;9.162;2024-02-28T01:37:18;97457.00;;;5.06;100.00
498;BME280;39559;48.630;9.162;2024-02-28T01:39:44;97459.34;;;5.16;100.00
498;BME280;39559;48.630;9.162;2024-02-28T01:42:10;97455.13;;;5.14;100.00
498;BME280;39559;48.630;9.162;2024-02-28T01:44:43;97459.31;;;5.19;100.00
498;BME280;39559;48.630;9.162;2024-02-28T01:49:03;97462.69;;;5.22;100.00
498;BME280;39559;48.630;9.162;2024-02-28T01:51:29;97464.56;;;5.15;100.00
498;BME280;39559;48.630;9.162;2024-02-28T01:53:56;97465.38;;;5.17;100.00
498;BME280;39559;48.630;9.162;2024-02-28T01:56:23;97467.28;;;5.07;100.00
498;BME280;39559;48.630;9.162;2024-02-28T01:58:49;97465.78;;;4.98;100.00
498;BME280;39559;48.630;9.162;2024-02-28T02:01:16;97468.41;;;4.94;100.00
498;BME280;39559;48.630;9.162;2024-02-28T02:03:43;97479.50;;;4.97;100.00
498;BME280;39559;48.630;9.162;2024-02-28T02:06:09;97481.41;;;4.88;100.00
498;BME280;39559;48.630;9.162;2024-02-28T02:08:36;97487.41;;;4.88;100.00
498;BME280;39559;48.630;9.162;2024-02-28T02:13:06;97488.16;;;4.93;100.00
498;BME280;39559;48.630;9.162;2024-02-28T02:15:31;97489.84;;;4.94;100.00
498;BME280;39559;48.630;9.162;2024-02-28T02:17:57;97485.28;;;5.09;100.00
498;BME280;39559;48.630;9.162;2024-02-28T02:20:23;97494.59;;;5.14;100.00
498;BME280;39559;48.630;9.162;2024-02-28T02:22:51;97493.03;;;5.07;100.00
498;BME280;39559;48.630;9.162;2024-02-28T02:25:17;97498.31;;;4.99;100.00
498;BME280;39559;48.630;9.162;2024-02-28T02:27:42;97506.94;;;4.98;100.00
498;BME280;39559;48.630;9.162;2024-02-28T02:30:08;97500.25;;;4.90;100.00
498;BME280;39559;48.630;9.162;2024-02-28T02:32:34;97508.13;;;4.82;100.00
498;BME280;39559;48.630;9.162;2024-02-28T02:37:01;97507.00;;;4.95;100.00
498;BME280;39559;48.630;9.162;2024-02-28T02:39:27;97518.66;;;4.68;100.00
498;BME280;39559;48.630;9.162;2024-02-28T02:41:53;97536.53;;;4.76;100.00
498;BME280;39559;48.630;9.162;2024-02-28T02:44:18;97537.06;;;4.93;100.00
498;BME280;39559;48.630;9.162;2024-02-28T02:46:44;97529.22;;;4.99;100.00
498;BME280;39559;48.630;9.162;2024-02-28T02:49:09;97525.59;;;5.10;100.00
498;BME280;39559;48.630;9.162;2024-02-28T02:51:35;97527.19;;;5.15;100.00
498;BME280;39559;48.630;9.162;2024-02-28T02:54:00;97527.25;;;5.11;100.00
498;BME280;39559;48.630;9.162;2024-02-28T02:56:26;97523.78;;;5.15;100.00
498;BME280;39559;48.630;9.162;2024-02-28T03:01:01;97533.19;;;5.14;100.00
498;BME280;39559;48.630;9.162;2024-02-28T03:03:26;97530.72;;;5.10;100.00
498;BME280;39559;48.630;9.162;2024-02-28T03:05:52;97538.47;;;5.08;100.00
498;BME280;39559;48.630;9.162;2024-02-28T03:08:18;97539.44;;;5.04;100.00
498;BME280;39559;48.630;9.162;2024-02-28T03:10:43;97535.94;;;5.07;100.00
498;BME280;39559;48.630;9.162;2024-02-28T03:13:09;97544.44;;;5.10;100.00
498;BME280;39559;48.630;9.162;2024-02-28T03:15:34;97545.41;;;5.05;100.00
498;BME280;39559;48.630;9.162;2024-02-28T03:18:00;97556.72;;;4.97;100.00
498;BME280;39559;48.630;9.162;2024-02-28T03:20:26;97563.28;;;5.12;100.00
498;BME280;39559;48.630;9.162;2024-02-28T03:25:00;97569.94;;;5.24;100.00
498;BME280;39559;48.630;9.162;2024-02-28T03:27:26;97569.19;;;5.17;100.00
498;BME280;39559;48.630;9.162;2024-02-28T03:29:51;97566.59;;;5.19;100.00
498;BME280;39559;48.630;9.162;2024-02-28T03:32:17;97571.75;;;5.17;100.00
498;BME280;39559;48.630;9.162;2024-02-28T03:34:43;97578.50;;;5.23;100.00
498;BME280;39559;48.630;9.162;2024-02-28T03:37:09;97582.91;;;5.18;100.00
498;BME280;39559;48.630;9.162;2024-02-28T03:39:34;97580.53;;;5.07;100.00
498;BME280;39559;48.630;9.162;2024-02-28T03:42:00;97584.63;;;5.17;100.00
498;BME280;39559;48.630;9.162;2024-02-28T03:44:25;97577.78;;;5.16;100.00
498;BME280;39559;48.630;9.162;2024-02-28T03:48:59;97581.91;;;5.25;100.00
498;BME280;39559;48.630;9.162;2024-02-28T03:51:25;97584.47;;;5.25;100.00
498;BME280;39559;48.630;9.162;2024-02-28T03:53:51;97583.63;;;5.26;100.00
498;BME280;39559;48.630;9.162;2024-02-28T03:56:26;97582.84;;;5.21;100.00
498;BME280;39559;48.630;9.162;2024-02-28T03:58:53;97587.34;;;5.11;100.00
498;BME280;39559;48.630;9.162;2024-02-28T04:01:19;97583.00;;;5.13;100.00
498;BME280;39559;48.630;9.162;2024-02-28T04:03:44;97579.31;;;5.25;100.00
498;BME280;39559;48.630;9.162;2024-02-28T04:06:11;97582.31;;;5.04;100.00
498;BME280;39559;48.630;9.162;2024-02-28T04:08:36;97587.63;;;4.94;100.00
498;BME280;39559;48.630;9.162;2024-02-28T04:12:59;97598.16;;;4.82;100.00
498;BME280;39559;48.630;9.162;2024-02-28T04:15:24;97604.25;;;4.76;100.00
498;BME280;39559;48.630;9.162;2024-02-28T04:17:51;97601.59;;;4.81;100.00
498;BME280;39559;48.630;9.162;2024-02-28T04:20:17;97606.81;;;4.76;100.00
498;BME280;39559;48.630;9.162;2024-02-28T04:22:43;97606.00;;;4.74;100.00
498;BME280;39559;48.630;9.162;2024-02-28T04:25:10;97600.84;;;4.74;100.00
498;BME280;39559;48.630;9.162;2024-02-28T04:27:36;97608.66;;;4.71;100.00
498;BME280;39559;48.630;9.162;2024-02-28T04:30:02;97608.66;;;4.70;100.00
498;BME280;39559;48.630;9.162;2024-02-28T04:32:28;97608.59;;;4.73;100.00
498;BME280;39559;48.630;9.162;2024-02-28T04:36:58;97607.69;;;4.77;100.00
498;BME280;39559;48.630;9.162;2024-02-28T04:39:24;97610.25;;;4.77;100.00
498;BME280;39559;48.630;9.162;2024-02-28T04:41:49;97607.75;;;4.72;100.00
498;BME280;39559;48.630;9.162;2024-02-28T04:44:15;97614.69;;;4.69;100.00
498;BME280;39559;48.630;9.162;2024-02-28T04:46:41;97614.66;;;4.70;100.00
498;BME280;39559;48.630;9.162;2024-02-28T04:49:06;97618.19;;;4.65;100.00
498;BME280;39559;48.630;9.162;2024-02-28T04:51:33;97622.50;;;4.63;100.00
498;BME280;39559;48.630;9.162;2024-02-28T04:53:59;97619.97;;;4.61;100.00
498;BME280;39559;48.630;9.162;2024-02-28T04:56:25;97613.03;;;4.66;100.00
498;BME280;39559;48.630;9.162;2024-02-28T05:00:59;97624.94;;;4.72;100.00
498;BME280;39559;48.630;9.162;2024-02-28T05:03:25;97625.63;;;4.80;100.00
498;BME280;39559;48.630;9.162;2024-02-28T05:05:50;97629.25;;;4.70;100.00
498;BME280;39559;48.630;9.162;2024-02-28T05:08:19;97625.78;;;4.71;100.00
498;BME280;39559;48.630;9.162;2024-02-28T05:10:45;97627.31;;;4.83;100.00
498;BME280;39559;48.630;9.162;2024-02-28T05:13:11;97627.22;;;4.87;100.00
498;BME280;39559;48.630;9.162;2024-02-28T05:15:36;97624.94;;;4.70;100.00
498;BME280;39559;48.630;9.162;2024-02-28T05:18:02;97636.00;;;4.77;100.00
498;BME280;39559;48.630;9.162;2024-02-28T05:20:27;97635.03;;;4.83;100.00
498;BME280;39559;48.630;9.162;2024-02-28T05:24:57;97634.72;;;5.01;100.00
498;BME280;39559;48.630;9.162;2024-02-28T05:27:23;97638.13;;;5.02;100.00
498;BME280;39559;48.630;9.162;2024-02-28T05:29:49;97632.19;;;4.96;100.00
498;BME280;39559;48.630;9.162;2024-02-28T05:32:14;97640.84;;;4.94;100.00
498;BME280;39559;48.630;9.162;2024-02-28T05:34:41;97650.09;;;5.04;100.00
498;BME280;39559;48.630;9.162;2024-02-28T05:37:06;97641.56;;;5.02;100.00
498;BME280;39559;48.630;9.162;2024-02-28T05:39:32;97638.06;;;5.05;100.00
498;BME280;39559;48.630;9.162;2024-02-28T05:41:58;97636.44;;;5.00;100.00
498;BME280;39559;48.630;9.162;2024-02-28T05:44:24;97643.25;;;5.03;100.00
498;BME280;39559;48.630;9.162;2024-02-28T05:48:57;97664.75;;;5.00;100.00
498;BME280;39559;48.630;9.162;2024-02-28T05:51:23;97663.03;;;4.99;100.00
498;BME280;39559;48.630;9.162;2024-02-28T05:53:48;97665.53;;;5.04;100.00
498;BME280;39559;48.630;9.162;2024-02-28T05:56:14;97665.63;;;4.99;100.00
498;BME280;39559;48.630;9.162;2024-02-28T05:58:44;97662.25;;;4.94;100.00
498;BME280;39559;48.630;9.162;2024-02-28T06:01:10;97667.81;;;4.71;100.00
498;BME280;39559;48.630;9.162;2024-02-28T06:03:39;97675.28;;;4.85;100.00
498;BME280;39559;48.630;9.162;2024-02-28T06:06:05;97678.03;;;4.74;100.00
498;BME280;39559;48.630;9.162;2024-02-28T06:08:39;97686.69;;;4.69;100.00
498;BME280;39559;48.630;9.162;2024-02-28T06:12:57;97675.47;;;4.73;100.00
498;BME280;39559;48.630;9.162;2024-02-28T06:15:22;97684.88;;;4.77;100.00
498;BME280;39559;48.630;9.162;2024-02-28T06:17:49;97690.06;;;4.72;100.00
498;BME280;39559;48.630;9.162;2024-02-28T06:20:14;97692.53;;;4.80;100.00
498;BME280;39559;48.630;9.162;2024-02-28T06:22:40;97695.00;;;4.88;100.00
498;BME280;39559;48.630;9.162;2024-02-28T06:25:07;97699.34;;;4.84;100.00
498;BME280;39559;48.630;9.162;2024-02-28T06:27:39;97698.63;;;4.74;100.00
498;BME280;39559;48.630;9.162;2024-02-28T06:30:06;97702.78;;;4.83;100.00
498;BME280;39559;48.630;9.162;2024-02-28T06:32:32;97708.88;;;4.76;100.00
498;BME280;39559;48.630;9.162;2024-02-28T06:36:56;97714.81;;;4.81;100.00
498;BME280;39559;48.630;9.162;2024-02-28T06:39:22;97719.81;;;4.89;100.00
498;BME280;39559;48.630;9.162;2024-02-28T06:41:50;97732.88;;;4.76;100.00
498;BME280;39559;48.630;9.162;2024-02-28T06:44:19;97735.50;;;4.75;100.00
498;BME280;39559;48.630;9.162;2024-02-28T06:46:45;97737.38;;;4.64;100.00
498;BME280;39559;48.630;9.162;2024-02-28T06:49:11;97739.06;;;4.65;100.00
498;BME280;39559;48.630;9.162;2024-02-28T06:51:37;97739.06;;;4.66;100.00
498;BME280;39559;48.630;9.162;2024-02-28T06:54:03;97740.56;;;4.78;100.00
498;BME280;39559;48.630;9.162;2024-02-28T06:56:30;97744.75;;;4.87;100.00
498;BME280;39559;48.630;9.162;2024-02-28T07:00:55;97752.75;;;4.67;100.00
498;BME280;39559;48.630;9.162;2024-02-28T07:03:21;97762.09;;;4.74;100.00
498;BME280;39559;48.630;9.162;2024-02-28T07:05:46;97752.41;;;4.90;100.00
498;BME280;39559;48.630;9.162;2024-02-28T07:08:12;97754.91;;;4.94;100.00
498;BME280;39559;48.630;9.162;2024-02-28T07:10:38;97753.91;;;5.03;100.00
498;BME280;39559;48.630;9.162;2024-02-28T07:13:09;97751.31;;;5.06;100.00
498;BME280;39559;48.630;9.162;2024-02-28T07:15:34;97753.22;;;4.95;100.00
498;BME280;39559;48.630;9.162;2024-02-28T07:18:00;97755.63;;;5.04;100.00
498;BME280;39559;48.630;9.162;2024-02-28T07:20:26;97755.81;;;4.93;100.00
498;BME280;39559;48.630;9.162;2024-02-28T07:24:55;97771.59;;;4.67;100.00
498;BME280;39559;48.630;9.162;2024-02-28T07:27:22;97766.31;;;4.78;100.00
498;BME280;39559;48.630;9.162;2024-02-28T07:29:49;97760.81;;;5.01;100.00
498;BME280;39559;48.630;9.162;2024-02-28T07:32:14;97768.28;;;5.16;100.00
498;BME280;39559;48.630;9.162;2024-02-28T07:34:40;97771.66;;;5.20;100.00
498;BME280;39559;48.630;9.162;2024-02-28T07:37:06;97773.97;;;5.35;100.00
498;BME280;39559;48.630;9.162;2024-02-28T07:39:31;97766.47;;;5.23;100.00
498;BME280;39559;48.630;9.162;2024-02-28T07:41:57;97777.41;;;5.34;100.00
498;BME280;39559;48.630;9.162;2024-02-28T07:44:22;97777.56;;;5.25;100.00
498;BME280;39559;48.630;9.162;2024-02-28T07:48:54;97779.09;;;5.38;100.00
498;BME280;39559;48.630;9.162;2024-02-28T07:51:20;97780.75;;;5.41;100.00
498;BME280;39559;48.630;9.162;2024-02-28T07:53:46;97781.72;;;5.35;100.00
498;BME280;39559;48.630;9.162;2024-02-28T07:56:16;97781.56;;;5.45;100.00
498;BME280;39559;48.630;9.162;2024-02-28T07:58:42;97783.31;;;5.43;100.00
498;BME280;39559;48.630;9.162;2024-02-28T08:01:08;97784.28;;;5.35;100.00
498;BME280;39559;48.630;9.162;2024-02-28T08:03:35;97791.25;;;5.29;100.00
498;BME280;39559;48.630;9.162;2024-02-28T08:06:00;97801.88;;;5.09;100.00
498;BME280;39559;48.630;9.162;2024-02-28T08:08:26;97803.66;;;5.04;100.00
498;BME280;39559;48.630;9.162;2024-02-28T08:12:53;97804.59;;;4.98;100.00
498;BME280;39559;48.630;9.162;2024-02-28T08:15:19;97806.28;;;5.02;100.00
498;BME280;39559;48.630;9.162;2024-02-28T08:17:45;97813.97;;;5.04;100.00
498;BME280;39559;48.630;9.162;2024-02-28T08:20:10;97820.69;;;5.14;100.00
498;BME280;39559;48.630;9.162;2024-02-28T08:22:36;97817.25;;;5.15;100.00
498;BME280;39559;48.630;9.162;2024-02-28T08:25:02;97811.16;;;5.19;100.00
498;BME280;39559;48.630;9.162;2024-02-28T08:27:28;97813.00;;;5.09;100.00
498;BME280;39559;48.630;9.162;2024-02-28T08:29:53;97807.84;;;5.09;100.00
498;BME280;39559;48.630;9.162;2024-02-28T08:32:19;97804.44;;;5.09;100.00
498;BME280;39559;48.630;9.162;2024-02-28T08:36:53;97816.50;;;5.05;100.00
498;BME280;39559;48.630;9.162;2024-02-28T08:39:18;97817.31;;;5.09;100.00
498;BME280;39559;48.630;9.162;2024-02-28T08:41:44;97821.59;;;5.10;100.00
498;BME280;39559;48.630;9.162;2024-02-28T08:44:10;97814.78;;;5.06;100.00
498;BME280;39559;48.630;9.162;2024-02-28T08:46:36;97819.16;;;5.00;100.00
498;BME280;39559;48.630;9.162;2024-02-28T08:49:02;97821.59;;;5.10;100.00
498;BME280;39559;48.630;9.162;2024-02-28T08:51:28;97820.53;;;5.22;100.00
498;BME280;39559;48.630;9.162;2024-02-28T08:53:54;97816.28;;;5.21;100.00
498;BME280;39559;48.630;9.162;2024-02-28T08:56:21;97821.16;;;5.37;100.00
498;BME280;39559;48.630;9.162;2024-02-28T09:00:54;97823.72;;;5.37;100.00
498;BME280;39559;48.630;9.162;2024-02-28T09:03:20;97823.63;;;5.44;100.00
498;BME280;39559;48.630;9.162;2024-02-28T09:05:48;97820.28;;;5.38;100.00
498;BME280;39559;48.630;9.162;2024-02-28T09:08:13;97822.25;;;5.24;100.00
498;BME280;39559;48.630;9.162;2024-02-28T09:10:39;97814.72;;;5.12;100.00
498;BME280;39559;48.630;9.162;2024-02-28T09:13:05;97821.47;;;5.17;100.00
498;BME280;39559;48.630;9.162;2024-02-28T09:15:33;97821.66;;;5.05;100.00
498;BME280;39559;48.630;9.162;2024-02-28T09:17:59;97823.09;;;5.23;100.00
498;BME280;39559;48.630;9.162;2024-02-28T09:20:26;97832.44;;;5.30;100.00
498;BME280;39559;48.630;9.162;2024-02-28T09:24:52;97830.06;;;5.16;100.00
498;BME280;39559;48.630;9.162;2024-02-28T09:27:18;97828.50;;;5.08;100.00
498;BME280;39559;48.630;9.162;2024-02-28T09:29:43;97838.06;;;4.98;100.00
498;BME280;39559;48.630;9.162;2024-02-28T09:32:09;97839.69;;;5.04;100.00
498;BME280;39559;48.630;9.162;2024-02-28T09:34:35;97832.53;;;5.24;100.00
498;BME280;39559;48.630;9.162;2024-02-28T09:37:00;97837.44;;;5.39;100.00
498;BME280;39559;48.630;9.162;2024-02-28T09:39:26;97840.84;;;5.42;100.00
498;BME280;39559;48.630;9.162;2024-02-28T09:41:51;97834.91;;;5.36;100.00
498;BME280;39559;48.630;9.162;2024-02-28T09:44:18;97835.63;;;5.46;100.00
498;BME280;39559;48.630;9.162;2024-02-28T09:48:52;97841.50;;;5.53;100.00
498;BME280;39559;48.630;9.162;2024-02-28T09:51:21;97849.28;;;5.50;100.00
498;BME280;39559;48.630;9.162;2024-02-28T09:53:50;97854.13;;;5.68;100.00
498;BME280;39559;48.630;9.162;2024-02-28T09:56:16;97855.97;;;5.60;100.00
498;BME280;39559;48.630;9.162;2024-02-28T09:58:42;97855.09;;;5.63;100.00
498;BME280;39559;48.630;9.162;2024-02-28T10:01:08;97853.38;;;5.62;100.00
498;BME280;39559;48.630;9.162;2024-02-28T10:03:37;97848.03;;;5.72;100.00
498;BME280;39559;48.630;9.162;2024-02-28T10:06:05;97850.63;;;5.72;100.00
498;BME280;39559;48.630;9.162;2024-02-28T10:08:30;97855.06;;;5.66;100.00
498;BME280;39559;48.630;9.162;2024-02-28T10:12:50;97848.88;;;5.74;100.00
498;BME280;39559;48.630;9.162;2024-02-28T10:15:16;97854.00;;;5.76;100.00
498;BME280;39559;48.630;9.162;2024-02-28T10:17:42;97863.69;;;5.62;100.00
498;BME280;39559;48.630;9.162;2024-02-28T10:20:09;97852.22;;;5.80;100.00
498;BME280;39559;48.630;9.162;2024-02-28T10:22:36;97858.50;;;5.63;100.00
498;BME280;39559;48.630;9.162;2024-02-28T10:25:02;97868.78;;;5.65;100.00
498;BME280;39559;48.630;9.162;2024-02-28T10:27:33;97859.00;;;5.84;100.00
498;BME280;39559;48.630;9.162;2024-02-28T10:30:00;97862.22;;;5.98;100.00
498;BME280;39559;48.630;9.162;2024-02-28T10:32:31;97858.47;;;6.14;100.00
498;BME280;39559;48.630;9.162;2024-02-28T10:36:49;97862.66;;;6.20;100.00
498;BME280;39559;48.630;9.162;2024-02-28T10:39:15;97865.19;;;6.25;100.00
498;BME280;39559;48.630;9.162;2024-02-28T10:41:42;97875.53;;;6.23;100.00
498;BME280;39559;48.630;9.162;2024-02-28T10:44:09;97878.88;;;6.27;100.00
498;BME280;39559;48.630;9.162;2024-02-28T10:46:38;97883.19;;;6.28;100.00
498;BME280;39559;48.630;9.162;2024-02-28T10:49:05;97879.63;;;6.33;100.00
498;BME280;39559;48.630;9.162;2024-02-28T10:51:34;97892.44;;;6.37;100.00
498;BME280;39559;48.630;9.162;2024-02-28T10:54:09;97895.97;;;6.32;100.00
498;BME280;39559;48.630;9.162;2024-02-28T10:56:41;97888.03;;;6.43;100.00
498;BME280;39559;48.630;9.162;2024-02-28T11:00:49;97889.66;;;6.47;100.00
498;BME280;39559;48.630;9.162;2024-02-28T11:03:17;97887.22;;;6.41;100.00
498;BME280;39559;48.630;9.162;2024-02-28T11:05:44;97888.84;;;6.45;100.00
498;BME280;39559;48.630;9.162;2024-02-28T11:08:27;97885.97;;;6.61;100.00
498;BME280;39559;48.630;9.162;2024-02-28T11:11:03;97889.41;;;6.61;100.00
498;BME280;39559;48.630;9.162;2024-02-28T11:13:30;97883.06;;;6.32;100.00
498;BME280;39559;48.630;9.162;2024-02-28T11:16:09;97882.59;;;6.13;100.00
498;BME280;39559;48.630;9.162;2024-02-28T11:18:35;97883.56;;;6.06;100.00
498;BME280;39559;48.630;9.162;2024-02-28T11:21:01;97885.19;;;6.12;100.00
498;BME280;39559;48.630;9.162;2024-02-28T11:24:49;97882.69;;;6.07;100.00
498;BME280;39559;48.630;9.162;2024-02-28T11:27:17;97896.34;;;6.12;100.00
498;BME280;39559;48.630;9.162;2024-02-28T11:29:43;97896.41;;;6.09;100.00
498;BME280;39559;48.630;9.162;2024-02-28T11:32:13;97904.28;;;6.02;100.00
498;BME280;39559;48.630;9.162;2024-02-28T11:34:40;97903.22;;;6.13;100.00
498;BME280;39559;48.630;9.162;2024-02-28T11:37:09;97897.56;;;5.91;100.00
498;BME280;39559;48.630;9.162;2024-02-28T11:39:35;97897.91;;;5.71;100.00
498;BME280;39559;48.630;9.162;2024-02-28T11:42:09;97903.59;;;5.89;100.00
498;BME280;39559;48.630;9.162;2024-02-28T11:44:35;97904.41;;;5.91;100.00
498;BME280;39559;48.630;9.162;2024-02-28T11:48:48;97894.94;;;5.93;100.00
498;BME280;39559;48.630;9.162;2024-02-28T11:51:13;97892.94;;;6.10;100.00
498;BME280;39559;48.630;9.162;2024-02-28T11:53:39;97906.41;;;6.26;100.00
498;BME280;39559;48.630;9.162;2024-02-28T11:56:05;97901.13;;;6.32;100.00
498;BME280;39559;48.630;9.162;2024-02-28T11:58:31;97905.59;;;6.24;100.00
498;BME280;39559;48.630;9.162;2024-02-28T12:00:56;97906.84;;;6.50;100.00
498;BME280;39559;48.630;9.162;2024-02-28T12:03:23;97900.97;;;6.40;100.00
498;BME280;39559;48.630;9.162;2024-02-28T12:05:49;97894.59;;;6.14;100.00
498;BME280;39559;48.630;9.162;2024-02-28T12:08:17;97896.16;;;6.23;100.00
498;BME280;39559;48.630;9.162;2024-02-28T12:12:47;97889.84;;;5.91;100.00
498;BME280;39559;48.630;9.162;2024-02-28T12:15:15;97889.84;;;5.90;100.00
498;BME280;39559;48.630;9.162;2024-02-28T12:17:42;97878.47;;;6.03;100.00
498;BME280;39559;48.630;9.162;2024-02-28T12:20:09;97882.03;;;5.94;100.00
498;BME280;39559;48.630;9.162;2024-02-28T12:22:34;97882.22;;;5.84;100.00
498;BME280;39559;48.630;9.162;2024-02-28T12:25:00;97879.38;;;6.01;100.00
498;BME280;39559;48.630;9.162;2024-02-28T12:27:30;97882.94;;;5.92;100.00
498;BME280;39559;48.630;9.162;2024-02-28T12:29:56;97883.09;;;5.83;100.00
498;BME280;39559;48.630;9.162;2024-02-28T12:32:22;97879.25;;;6.08;100.00
498;BME280;39559;48.630;9.162;2024-02-28T12:36:46;97876.66;;;6.08;100.00
498;BME280;39559;48.630;9.162;2024-02-28T12:39:11;97882.94;;;5.92;100.00
498;BME280;39559;48.630;9.162;2024-02-28T12:41:38;97884.75;;;5.87;100.00
498;BME280;39559;48.630;9.162;2024-02-28T12:44:07;97889.19;;;5.79;100.00
498;BME280;39559;48.630;9.162;2024-02-28T12:46:34;97879.53;;;5.91;100.00
498;BME280;39559;48.630;9.162;2024-02-28T12:49:00;97876.78;;;6.02;100.00
498;BME280;39559;48.630;9.162;2024-02-28T12:51:40;97870.72;;;6.03;100.00
498;BME280;39559;48.630;9.162;2024-02-28T12:54:07;97873.16;;;6.11;100.00
498;BME280;39559;48.630;9.162;2024-02-28T12:56:42;97872.31;;;6.10;100.00
498;BME280;39559;48.630;9.162;2024-02-28T13:00:45;97866.00;;;6.27;100.00
498;BME280;39559;48.630;9.162;2024-02-28T13:03:10;97866.00;;;6.27;100.00
498;BME280;39559;48.630;9.162;2024-02-28T13:05:36;97865.72;;;5.95;100.00
498;BME280;39559;48.630;9.162;2024-02-28T13:08:03;97863.94;;;5.99;100.00
498;BME280;39559;48.630;9.162;2024-02-28T13:10:29;97867.13;;;6.12;100.00
498;BME280;39559;48.630;9.162;2024-02-28T13:12:55;97863.78;;;6.08;100.00
498;BME280;39559;48.630;9.162;2024-02-28T13:15:21;97870.03;;;5.93;100.00
498;BME280;39559;48.630;9.162;2024-02-28T13:17:47;97864.69;;;6.06;100.00
498;BME280;39559;48.630;9.162;2024-02-28T13:20:15;97866.16;;;6.19;100.00
498;BME280;39559;48.630;9.162;2024-02-28T13:24:44;97869.34;;;6.32;100.00
498;BME280;39559;48.630;9.162;2024-02-28T13:27:09;97874.91;;;6.10;100.00
498;BME280;39559;48.630;9.162;2024-02-28T13:29:35;97867.03;;;6.17;100.00
498;BME280;39559;48.630;9.162;2024-02-28T13:32:01;97864.53;;;6.13;100.00
498;BME280;39559;48.630;9.162;2024-02-28T13:34:27;97870.50;;;6.17;100.00
498;BME280;39559;48.630;9.162;2024-02-28T13:36:55;97864.44;;;6.18;100.00
498;BME280;39559;48.630;9.162;2024-02-28T13:39:21;97858.44;;;6.18;100.00
498;BME280;39559;48.630;9.162;2024-02-28T13:41:49;97863.25;;;5.88;100.00
498;BME280;39559;48.630;9.162;2024-02-28T13:44:19;97865.84;;;5.88;100.00
498;BME280;39559;48.630;9.162;2024-02-28T13:48:43;97866.28;;;5.60;100.00
498;BME280;39559;48.630;9.162;2024-02-28T13:51:08;97868.91;;;5.58;100.00
498;BME280;39559;48.630;9.162;2024-02-28T13:53:34;97863.69;;;5.62;100.00
498;BME280;39559;48.630;9.162;2024-02-28T13:56:00;97860.22;;;5.64;100.00
498;BME280;39559;48.630;9.162;2024-02-28T13:58:25;97863.66;;;5.63;100.00
498;BME280;39559;48.630;9.162;2024-02-28T14:00:51;97854.97;;;5.69;100.00
498;BME280;39559;48.630;9.162;2024-02-28T14:03:17;97856.78;;;5.64;100.00
498;BME280;39559;48.630;9.162;2024-02-28T14:05:43;97848.50;;;5.98;100.00
498;BME280;39559;48.630;9.162;2024-02-28T14:08:09;97855.03;;;6.15;100.00
498;BME280;39559;48.630;9.162;2024-02-28T14:12:46;97850.53;;;6.27;100.00
498;BME280;39559;48.630;9.162;2024-02-28T14:15:11;97849.53;;;6.34;100.00
498;BME280;39559;48.630;9.162;2024-02-28T14:17:37;97851.75;;;6.07;100.00
498;BME280;39559;48.630;9.162;2024-02-28T14:20:04;97854.66;;;5.87;100.00
498;BME280;39559;48.630;9.162;2024-02-28T14:22:32;97854.56;;;5.93;100.00
498;BME280;39559;48.630;9.162;2024-02-28T14:25:01;97858.78;;;5.99;100.00
498;BME280;39559;48.630;9.162;2024-02-28T14:27:31;97862.00;;;6.10;100.00
498;BME280;39559;48.630;9.162;2024-02-28T14:29:59;97868.25;;;5.99;100.00